KHYR/HYR METAR and TAF weather

Enter ICAO airport designator
Station Type Date Time Source
KHYR METAR 2018/12/13 20:53 UTC NOAA

KHYR 132053Z AUTO 20009KT 1 3/4SM BR OVC005 M01/M03 A2999 RMK AO2 SLP173 T10111028 53005


Station Type Date Time Source
KHYR Decoded METAR 2018/12/13 20:53 UTC NOAA

HAYWARD MUNICIPAL AIRPORT, WI, United States (KHYR) 46-01N 91-27W 370M
Dec 13, 2018 - 03:53 PM EST / 2018.12.13 2053 UTC
Wind: from the SSW (200 degrees) at 10 MPH (9 KT):0
Visibility: 1 3/4 mile(s):0
Sky conditions: overcast
Weather: mist
Temperature: 30.0 F (-1.1 C)
Windchill: 21 F (-6 C):1
Dew Point: 27.0 F (-2.8 C)
Relative Humidity: 88%
Pressure (altimeter): 29.99 in. Hg (1015 hPa)
Pressure tendency: 0.01 inches (0.5 hPa) higher than three hours ago
ob: KHYR 132053Z AUTO 20009KT 1 3/4SM BR OVC005 M01/M03 A2999 RMK AO2 SLP173 T10111028 53005
cycle: 21

Station Type Date Time Source
KHYR TAF 2018/12/13 21:03 UTC NOAA

TAF
AMD KHYR 132101Z 1321/1418 18004KT 2SM BR OVC005
FM140000 VRB04KT 5SM BR OVC010
FM140500 VRB04KT 1 1/2SM BR BKN003
FM141000 VRB04KT 3SM BR SCT130
FM141300 21005KT P6SM SCT140


Example: see airport list